aviador You're here:

SBPA Decoded Metar

PORTO ALEGRE in BRAZIL
Report Time2017-08-24 08:00:00
UTC Time2017-08-24 08:52:48
Flight Rules vfr VFR
Wind030° at 02 kt
W.Decomp.*RWY 11: 0.9 kt HW 1.8 kt LCW
W.Rank030° ranks 33
Current wind is below 030° avg. (4.3)
Visibility9999 m
Phenomena:N/A
Clouds:N/A
Expected CloudBase > 400 ft AGL from Temp-Dew spread
CeilingNone
Temp16°C (ISA +1)
Dew Point15°C (94% RH)
QNH1016 hPa
Density Alt256 ft
Elevation10 ft
Report Wrong Elevation
Raw Report
METAR SBPA 240800Z 03002KT CAVOK 16/15 Q1016=

Extra information for SBPA:More info

Metar Taf Metar & Taf Last 4 Metars F.Rules Stats Wind Profile Meteogram Temp Stats Airport Information Weather charts Add Link Nearby VenuesMetar ALERT Operation Metar Decoded Social comments